Thunderstorms From: 15-12-2017 06:00 Until: 16-12-2017 06:00 warning for: Thunderstorms Level: Yellow info button

Although rather usual in this region, locally or potentially dangerous phenomena are expected. (such as local winds, summer thunderstorms, rising streams or high waves) Be aware and pay attention to the latest weather updates, especially if you carry out activities exposed to weather or close to a stream or shoreline. 


Meteo18 Weather Cam more information Meteo18 Weather Cam


warning for Thunderstorms more information blitzortung!


Rain radar more information rain snow radar


Visit our other weather sites:

Template documentation
and downloads

And another site



Weather Underground History page Text

Daily Summary for May 22, 2017 Units:  Metric    English   Both
« Previous Day
Next Day »
Daily Weekly Monthly Yearly Custom
  High: Low: Average:
Temperature: 26.6 °C 9.6 °C 18.9 °C
Dew Point: 16.1 °C 7.6 °C 11.7 °C
Humidity: 88 % 37 % 66 %
Wind Speed: 12.9 km/h 0.0 km/h 2.9 km/h
Wind Gust: 17.7 km/h - -
Wind:- - SSW
Pressure: 1019.5 hPa 1016.5 hPa -
Precipitation: 0.0 mm    
Historical Graphs
 
 
Tabular Data for May 22, 2017
Time Temperature Dew Point Pressure Wind Wind Speed Wind Gust Humidity Rainfall Rate (Hourly)
00:02 14.4 °C 9.6 °C 1019.5 hPa ENE 3.2 km/h 6.4 km/h 73 % 0.0 mm
00:07 14.3 °C 9.5 °C 1019.5 hPa Calm   6.4 km/h 73 % 0.0 mm
00:12 14.2 °C 9.4 °C 1019.5 hPa NE 1.6 km/h 6.4 km/h 73 % 0.0 mm
00:17 14.1 °C 9.5 °C 1019.2 hPa NE 1.6 km/h 6.4 km/h 74 % 0.0 mm
00:22 13.9 °C 9.5 °C 1019.2 hPa Calm   4.8 km/h 75 % 0.0 mm
00:27 13.8 °C 9.4 °C 1019.2 hPa NE 1.6 km/h 4.8 km/h 75 % 0.0 mm
00:32 13.8 °C 9.4 °C 1019.2 hPa NE 3.2 km/h 3.2 km/h 75 % 0.0 mm
00:37 13.9 °C 9.5 °C 1019.2 hPa Calm   3.2 km/h 75 % 0.0 mm
00:42 13.8 °C 9.4 °C 1019.2 hPa NE 1.6 km/h 4.8 km/h 75 % 0.0 mm
00:52 13.6 °C 9.4 °C 1019.2 hPa NE 1.6 km/h 4.8 km/h 76 % 0.0 mm
00:57 13.4 °C 9.3 °C 1018.8 hPa NE 1.6 km/h 4.8 km/h 76 % 0.0 mm
01:02 13.4 °C 9.3 °C 1018.8 hPa ENE 1.6 km/h 4.8 km/h 76 % 0.0 mm
01:12 13.2 °C 9.1 °C 1018.8 hPa Calm   4.8 km/h 76 % 0.0 mm
01:17 12.7 °C 9.0 °C 1018.8 hPa WNW 1.6 km/h 4.8 km/h 78 % 0.0 mm
01:22 12.6 °C 9.1 °C 1018.8 hPa Calm   4.8 km/h 79 % 0.0 mm
01:32 12.6 °C 9.1 °C 1018.8 hPa Calm   1.6 km/h 79 % 0.0 mm
01:37 12.3 °C 8.8 °C 1018.8 hPa Calm   1.6 km/h 79 % 0.0 mm
01:42 11.9 °C 8.7 °C 1018.8 hPa WNW 1.6 km/h 1.6 km/h 81 % 0.0 mm
01:52 11.7 °C 8.9 °C 1018.5 hPa Calm   1.6 km/h 83 % 0.0 mm
01:57 11.5 °C 8.7 °C 1018.5 hPa Calm   1.6 km/h 83 % 0.0 mm
02:02 11.1 °C 8.7 °C 1018.5 hPa Calm   1.6 km/h 85 % 0.0 mm
02:12 11.3 °C 8.9 °C 1018.5 hPa Calm   1.6 km/h 85 % 0.0 mm
02:17 11.3 °C 8.7 °C 1018.5 hPa Calm   1.6 km/h 84 % 0.0 mm
02:22 11.3 °C 8.9 °C 1018.2 hPa Calm   1.6 km/h 85 % 0.0 mm
02:32 11.1 °C 8.5 °C 1018.2 hPa Calm   1.6 km/h 84 % 0.0 mm
02:37 11.1 °C 8.7 °C 1017.8 hPa WNW 1.6 km/h 1.6 km/h 85 % 0.0 mm
02:42 11.1 °C 8.7 °C 1017.8 hPa Calm   1.6 km/h 85 % 0.0 mm
02:47 11.2 °C 8.8 °C 1017.8 hPa Calm   1.6 km/h 85 % 0.0 mm
02:52 11.3 °C 8.5 °C 1017.8 hPa Calm   1.6 km/h 83 % 0.0 mm
03:02 11.4 °C 8.6 °C 1017.8 hPa North 1.6 km/h 1.6 km/h 83 % 0.0 mm
03:12 11.6 °C 8.6 °C 1017.5 hPa North 1.6 km/h 3.2 km/h 82 % 0.0 mm
03:17 11.6 °C 8.6 °C 1017.5 hPa Calm   3.2 km/h 82 % 0.0 mm
03:22 11.5 °C 8.5 °C 1017.5 hPa North 1.6 km/h 3.2 km/h 82 % 0.0 mm
03:32 11.4 °C 8.4 °C 1017.5 hPa Calm   4.8 km/h 82 % 0.0 mm
03:42 11.4 °C 8.6 °C 1017.5 hPa Calm   3.2 km/h 83 % 0.0 mm
03:52 11.4 °C 8.4 °C 1017.2 hPa Calm   3.2 km/h 82 % 0.0 mm
03:57 11.4 °C 8.4 °C 1017.2 hPa NNE 1.6 km/h 3.2 km/h 82 % 0.0 mm
04:02 11.4 °C 8.3 °C 1017.2 hPa North 3.2 km/h 3.2 km/h 81 % 0.0 mm
04:07 11.3 °C 8.2 °C 1017.2 hPa NNE 1.6 km/h 4.8 km/h 81 % 0.0 mm
04:12 11.2 °C 8.2 °C 1017.2 hPa NNE 1.6 km/h 4.8 km/h 82 % 0.0 mm
04:17 10.9 °C 7.9 °C 1017.2 hPa Calm   6.4 km/h 82 % 0.0 mm
04:22 10.6 °C 8.0 °C 1017.2 hPa Calm   6.4 km/h 84 % 0.0 mm
04:32 10.4 °C 8.0 °C 1017.2 hPa Calm   3.2 km/h 85 % 0.0 mm
04:37 10.4 °C 8.0 °C 1017.2 hPa Calm     85 % 0.0 mm
04:42 10.4 °C 8.2 °C 1017.2 hPa Calm     86 % 0.0 mm
04:47 10.4 °C 8.2 °C 1017.2 hPa Calm     86 % 0.0 mm
04:52 10.4 °C 8.2 °C 1017.2 hPa Calm     86 % 0.0 mm
05:02 10.2 °C 8.0 °C 1016.8 hPa Calm     86 % 0.0 mm
05:12 10.1 °C 7.9 °C 1016.8 hPa Calm     86 % 0.0 mm
05:17 10.1 °C 8.0 °C 1016.8 hPa Calm     87 % 0.0 mm
05:22 10.2 °C 8.0 °C 1016.8 hPa Calm     86 % 0.0 mm
05:32 10.2 °C 8.0 °C 1016.8 hPa Calm     86 % 0.0 mm
05:37 10.1 °C 7.9 °C 1016.8 hPa Calm     86 % 0.0 mm
05:42 10.2 °C 8.1 °C 1016.8 hPa Calm     87 % 0.0 mm
05:47 10.2 °C 8.0 °C 1016.8 hPa Calm     86 % 0.0 mm
05:52 10.1 °C 7.9 °C 1016.8 hPa Calm     86 % 0.0 mm
06:02 10.0 °C 7.9 °C 1016.8 hPa NNW 1.6 km/h   87 % 0.0 mm
06:07 9.9 °C 7.8 °C 1016.8 hPa North 1.6 km/h 3.2 km/h 87 % 0.0 mm
06:12 9.7 °C 7.6 °C 1016.8 hPa Calm   3.2 km/h 87 % 0.0 mm
06:17 9.7 °C 7.8 °C 1016.8 hPa Calm   3.2 km/h 88 % 0.0 mm
06:22 9.6 °C 7.7 °C 1016.8 hPa Calm   3.2 km/h 88 % 0.0 mm
06:32 9.9 °C 8.0 °C 1017.2 hPa Calm   1.6 km/h 88 % 0.0 mm
06:42 10.1 °C 8.2 °C 1017.2 hPa Calm   1.6 km/h 88 % 0.0 mm
06:47 10.5 °C 8.6 °C 1017.2 hPa Calm   1.6 km/h 88 % 0.0 mm
06:52 10.9 °C 8.5 °C 1017.2 hPa Calm   1.6 km/h 85 % 0.0 mm
07:02 11.3 °C 8.7 °C 1017.2 hPa Calm   3.2 km/h 84 % 0.0 mm
07:12 11.4 °C 8.6 °C 1017.2 hPa Calm   3.2 km/h 83 % 0.0 mm
07:17 11.4 °C 8.8 °C 1017.2 hPa North 1.6 km/h 3.2 km/h 84 % 0.0 mm
07:22 11.7 °C 9.1 °C 1017.2 hPa Calm   3.2 km/h 84 % 0.0 mm
07:32 12.3 °C 9.1 °C 1017.2 hPa NNE 1.6 km/h 3.2 km/h 81 % 0.0 mm
07:42 12.6 °C 9.4 °C 1017.2 hPa NNE 1.6 km/h 3.2 km/h 81 % 0.0 mm
07:47 12.6 °C 9.4 °C 1017.2 hPa NE 1.6 km/h 4.8 km/h 81 % 0.0 mm
07:52 12.7 °C 9.7 °C 1017.2 hPa NE 3.2 km/h 4.8 km/h 82 % 0.0 mm
07:57 12.8 °C 10.0 °C 1017.2 hPa NE 4.8 km/h 4.8 km/h 83 % 0.0 mm
08:02 12.9 °C 10.1 °C 1017.2 hPa Calm   4.8 km/h 83 % 0.0 mm
08:12 13.3 °C 10.5 °C 1016.8 hPa NE 3.2 km/h 8.0 km/h 83 % 0.0 mm
08:22 13.8 °C 10.8 °C 1017.2 hPa Calm   6.4 km/h 82 % 0.0 mm
08:32 14.7 °C 11.3 °C 1017.2 hPa Calm   4.8 km/h 80 % 0.0 mm
08:37 15.0 °C 11.0 °C 1017.2 hPa Calm   1.6 km/h 77 % 0.0 mm
08:42 15.1 °C 11.3 °C 1017.2 hPa NE 1.6 km/h 1.6 km/h 78 % 0.0 mm
08:52 15.8 °C 11.6 °C 1017.2 hPa East 1.6 km/h 3.2 km/h 76 % 0.0 mm
09:02 16.5 °C 12.1 °C 1017.2 hPa Calm   8.0 km/h 75 % 0.0 mm
09:12 17.1 °C 11.4 °C 1017.2 hPa East 3.2 km/h 6.4 km/h 69 % 0.0 mm
09:17 17.0 °C 11.9 °C 1017.5 hPa Calm   6.4 km/h 72 % 0.0 mm
09:22 17.2 °C 11.9 °C 1017.5 hPa Calm   6.4 km/h 71 % 0.0 mm
09:32 17.8 °C 12.3 °C 1017.5 hPa SSE 1.6 km/h 6.4 km/h 70 % 0.0 mm
09:42 17.7 °C 12.2 °C 1017.5 hPa ESE 3.2 km/h 4.8 km/h 70 % 0.0 mm
09:47 17.8 °C 12.9 °C 1017.5 hPa Calm   6.4 km/h 73 % 0.0 mm
09:52 18.2 °C 12.9 °C 1017.5 hPa SE 3.2 km/h 6.4 km/h 71 % 0.0 mm
09:57 18.4 °C 12.4 °C 1017.5 hPa South 3.2 km/h 6.4 km/h 68 % 0.0 mm
10:02 18.5 °C 12.3 °C 1017.5 hPa South 4.8 km/h 6.4 km/h 67 % 0.0 mm
10:12 18.4 °C 12.2 °C 1017.5 hPa SSW 1.6 km/h 8.0 km/h 67 % 0.0 mm
10:17 18.6 °C 12.4 °C 1017.2 hPa South 3.2 km/h 9.7 km/h 67 % 0.0 mm
10:22 18.6 °C 11.9 °C 1017.5 hPa South 3.2 km/h 9.7 km/h 65 % 0.0 mm
10:32 18.8 °C 12.5 °C 1017.2 hPa WSW 4.8 km/h 11.3 km/h 67 % 0.0 mm
10:42 19.2 °C 12.9 °C 1017.2 hPa SSW 1.6 km/h 12.9 km/h 67 % 0.0 mm
10:52 19.5 °C 12.7 °C 1017.2 hPa SSW 3.2 km/h 9.7 km/h 65 % 0.0 mm
10:57 19.7 °C 13.2 °C 1017.2 hPa ESE 3.2 km/h 8.0 km/h 66 % 0.0 mm
11:02 19.9 °C 13.6 °C 1017.2 hPa Calm   8.0 km/h 67 % 0.0 mm
11:12 20.6 °C 13.3 °C 1017.2 hPa Calm   9.7 km/h 63 % 0.0 mm
11:22 20.9 °C 13.3 °C 1017.2 hPa SSE 1.6 km/h 8.0 km/h 62 % 0.0 mm
11:32 21.1 °C 12.8 °C 1017.2 hPa SSW 3.2 km/h 8.0 km/h 59 % 0.0 mm
11:42 21.6 °C 14.0 °C 1016.8 hPa SW 6.4 km/h 11.3 km/h 62 % 0.0 mm
11:47 21.6 °C 13.5 °C 1016.8 hPa South 1.6 km/h 11.3 km/h 60 % 0.0 mm
11:52 21.8 °C 13.7 °C 1016.8 hPa SSW 3.2 km/h 11.3 km/h 60 % 0.0 mm
12:02 22.1 °C 14.0 °C 1016.8 hPa Calm   9.7 km/h 60 % 0.0 mm
12:12 22.3 °C 15.2 °C 1017.2 hPa ESE 1.6 km/h 6.4 km/h 64 % 0.0 mm
12:17 22.5 °C 13.6 °C 1017.2 hPa SW 8.0 km/h 8.0 km/h 57 % 0.0 mm
12:22 22.4 °C 14.0 °C 1017.2 hPa Calm   6.4 km/h 59 % 0.0 mm
12:32 22.8 °C 13.6 °C 1017.2 hPa SSW 3.2 km/h 9.7 km/h 56 % 0.0 mm
12:42 22.9 °C 13.4 °C 1017.2 hPa SSW 6.4 km/h 12.9 km/h 55 % 0.0 mm
12:47 23.0 °C 13.2 °C 1017.2 hPa SSW 1.6 km/h 12.9 km/h 54 % 0.0 mm
12:52 23.2 °C 14.2 °C 1017.2 hPa SSW 1.6 km/h 12.9 km/h 57 % 0.0 mm
12:57 23.4 °C 14.1 °C 1017.2 hPa WSW 3.2 km/h 8.0 km/h 56 % 0.0 mm
13:02 23.0 °C 13.5 °C 1017.2 hPa SW 6.4 km/h 8.0 km/h 55 % 0.0 mm
13:12 23.3 °C 13.5 °C 1017.2 hPa SSW 1.6 km/h 11.3 km/h 54 % 0.0 mm
13:17 23.9 °C 14.0 °C 1017.2 hPa SSW 1.6 km/h 9.7 km/h 54 % 0.0 mm
13:22 24.1 °C 13.9 °C 1017.2 hPa Calm   9.7 km/h 53 % 0.0 mm
13:27 23.7 °C 13.8 °C 1017.2 hPa Calm   6.4 km/h 54 % 0.0 mm
13:32 23.8 °C 12.8 °C 1017.2 hPa Calm   6.4 km/h 50 % 0.0 mm
13:37 23.8 °C 13.4 °C 1017.2 hPa SSW 9.7 km/h 9.7 km/h 52 % 0.0 mm
13:42 23.8 °C 13.9 °C 1017.2 hPa East 4.8 km/h 9.7 km/h 54 % 0.0 mm
13:52 24.2 °C 14.6 °C 1017.2 hPa SSE 3.2 km/h 11.3 km/h 55 % 0.0 mm
13:57 24.3 °C 12.6 °C 1017.2 hPa South 6.4 km/h 8.0 km/h 48 % 0.0 mm
14:02 24.1 °C 13.0 °C 1017.2 hPa WSW 1.6 km/h 8.0 km/h 50 % 0.0 mm
14:07 24.1 °C 12.7 °C 1017.2 hPa WSW 8.0 km/h 11.3 km/h 49 % 0.0 mm
14:12 24.2 °C 12.8 °C 1017.2 hPa SSW 12.9 km/h 12.9 km/h 49 % 0.0 mm
14:17 24.2 °C 12.5 °C 1017.2 hPa SSW 9.7 km/h 14.5 km/h 48 % 0.0 mm
14:22 24.5 °C 14.0 °C 1017.2 hPa South 1.6 km/h 14.5 km/h 52 % 0.0 mm
14:27 24.6 °C 13.8 °C 1017.2 hPa South 1.6 km/h 14.5 km/h 51 % 0.0 mm
14:32 24.8 °C 14.0 °C 1017.2 hPa SW 6.4 km/h 14.5 km/h 51 % 0.0 mm
14:37 24.7 °C 13.6 °C 1017.2 hPa SW 9.7 km/h 12.9 km/h 50 % 0.0 mm
14:42 24.7 °C 13.3 °C 1017.2 hPa WSW 11.3 km/h 12.9 km/h 49 % 0.0 mm
14:47 24.8 °C 12.4 °C 1017.2 hPa SW 6.4 km/h 16.1 km/h 46 % 0.0 mm
14:52 25.1 °C 12.7 °C 1017.2 hPa WSW 6.4 km/h 16.1 km/h 46 % 0.0 mm
14:57 25.2 °C 13.4 °C 1017.2 hPa SSW 4.8 km/h 16.1 km/h 48 % 0.0 mm
15:02 25.2 °C 11.7 °C 1017.2 hPa South 4.8 km/h 16.1 km/h 43 % 0.0 mm
15:12 25.0 °C 11.9 °C 1017.2 hPa SSW 3.2 km/h 16.1 km/h 44 % 0.0 mm
15:17 25.1 °C 13.0 °C 1017.2 hPa SE 1.6 km/h 11.3 km/h 47 % 0.0 mm
15:22 25.3 °C 12.8 °C 1017.2 hPa WSW 1.6 km/h 11.3 km/h 46 % 0.0 mm
15:32 25.3 °C 12.2 °C 1016.8 hPa WSW 3.2 km/h 11.3 km/h 44 % 0.0 mm
15:37 25.2 °C 11.7 °C 1016.8 hPa West 3.2 km/h 11.3 km/h 43 % 0.0 mm
15:42 25.3 °C 11.8 °C 1016.8 hPa Calm   11.3 km/h 43 % 0.0 mm
15:47 25.7 °C 12.5 °C 1016.8 hPa Calm   12.9 km/h 44 % 0.0 mm
15:52 25.9 °C 11.6 °C 1016.8 hPa SW 8.0 km/h 12.9 km/h 41 % 0.0 mm
15:57 25.7 °C 11.1 °C 1016.8 hPa SW 6.4 km/h 11.3 km/h 40 % 0.0 mm
16:02 25.7 °C 11.5 °C 1016.8 hPa WSW 1.6 km/h 11.3 km/h 41 % 0.0 mm
16:07 26.2 °C 11.2 °C 1016.8 hPa SW 3.2 km/h 12.9 km/h 39 % 0.0 mm
16:12 26.0 °C 12.1 °C 1016.8 hPa SW 3.2 km/h 12.9 km/h 42 % 0.0 mm
16:17 25.9 °C 10.1 °C 1016.8 hPa West 6.4 km/h 12.9 km/h 37 % 0.0 mm
16:22 25.6 °C 10.6 °C 1016.8 hPa SSW 1.6 km/h 12.9 km/h 39 % 0.0 mm
16:32 25.7 °C 11.5 °C 1016.8 hPa SSW 3.2 km/h 12.9 km/h 41 % 0.0 mm
16:37 26.0 °C 11.7 °C 1016.8 hPa SE 6.4 km/h 14.5 km/h 41 % 0.0 mm
16:42 25.9 °C 11.3 °C 1016.8 hPa WSW 4.8 km/h 14.5 km/h 40 % 0.0 mm
16:52 26.0 °C 12.1 °C 1016.8 hPa WNW 3.2 km/h 14.5 km/h 42 % 0.0 mm
17:02 26.0 °C 11.7 °C 1016.8 hPa West 6.4 km/h 12.9 km/h 41 % 0.0 mm
17:12 26.1 °C 11.8 °C 1016.8 hPa SW 6.4 km/h 12.9 km/h 41 % 0.0 mm
17:17 26.1 °C 11.8 °C 1016.8 hPa SW 3.2 km/h 17.7 km/h 41 % 0.0 mm
17:22 26.2 °C 11.9 °C 1016.8 hPa West 6.4 km/h 17.7 km/h 41 % 0.0 mm
17:27 26.4 °C 12.8 °C 1016.8 hPa WSW 8.0 km/h 16.1 km/h 43 % 0.0 mm
17:32 26.2 °C 11.9 °C 1016.8 hPa WSW 6.4 km/h 16.1 km/h 41 % 0.0 mm
17:42 26.4 °C 12.8 °C 1016.8 hPa WSW 4.8 km/h 11.3 km/h 43 % 0.0 mm
17:47 26.6 °C 12.3 °C 1016.8 hPa SW 4.8 km/h 12.9 km/h 41 % 0.0 mm
17:52 26.2 °C 12.6 °C 1016.5 hPa SW 9.7 km/h 12.9 km/h 43 % 0.0 mm
17:57 26.2 °C 12.6 °C 1016.5 hPa SSW 9.7 km/h 12.9 km/h 43 % 0.0 mm
18:02 26.2 °C 13.3 °C 1016.5 hPa SSW 3.2 km/h 12.9 km/h 45 % 0.0 mm
18:12 26.2 °C 12.3 °C 1016.5 hPa WSW 6.4 km/h 14.5 km/h 42 % 0.0 mm
18:17 26.1 °C 12.2 °C 1016.5 hPa SW 9.7 km/h 14.5 km/h 42 % 0.0 mm
18:22 26.1 °C 12.9 °C 1016.5 hPa SW 9.7 km/h 12.9 km/h 44 % 0.0 mm
18:27 26.1 °C 12.5 °C 1016.5 hPa WNW 3.2 km/h 12.9 km/h 43 % 0.0 mm
18:37 25.9 °C 12.7 °C 1016.5 hPa WSW 6.4 km/h 11.3 km/h 44 % 0.0 mm
18:42 25.8 °C 13.0 °C 1016.5 hPa West 6.4 km/h 9.7 km/h 45 % 0.0 mm
18:47 25.6 °C 12.1 °C 1016.5 hPa WSW 4.8 km/h 11.3 km/h 43 % 0.0 mm
18:52 25.3 °C 11.8 °C 1016.5 hPa WNW 3.2 km/h 11.3 km/h 43 % 0.0 mm
18:57 25.4 °C 12.3 °C 1016.5 hPa West 3.2 km/h 11.3 km/h 44 % 0.0 mm
19:02 25.5 °C 12.4 °C 1016.5 hPa WNW 3.2 km/h 11.3 km/h 44 % 0.0 mm
19:07 25.5 °C 12.4 °C 1016.5 hPa West 3.2 km/h 9.7 km/h 44 % 0.0 mm
19:12 25.5 °C 12.4 °C 1016.5 hPa WSW 8.0 km/h 9.7 km/h 44 % 0.0 mm
19:17 25.4 °C 12.6 °C 1016.5 hPa WNW 3.2 km/h 9.7 km/h 45 % 0.0 mm
19:22 25.2 °C 11.7 °C 1016.5 hPa WSW 4.8 km/h 9.7 km/h 43 % 0.0 mm
19:32 25.1 °C 13.0 °C 1016.5 hPa WNW 6.4 km/h 9.7 km/h 47 % 0.0 mm
19:37 25.1 °C 13.3 °C 1016.5 hPa SW 1.6 km/h 9.7 km/h 48 % 0.0 mm
19:42 25.1 °C 13.3 °C 1016.5 hPa West 3.2 km/h 9.7 km/h 48 % 0.0 mm
19:52 25.3 °C 14.1 °C 1016.5 hPa West 1.6 km/h 6.4 km/h 50 % 0.0 mm
19:57 25.3 °C 13.8 °C 1016.5 hPa WNW 1.6 km/h 4.8 km/h 49 % 0.0 mm
20:02 25.4 °C 13.6 °C 1016.5 hPa WNW 1.6 km/h 4.8 km/h 48 % 0.0 mm
20:12 25.4 °C 13.6 °C 1016.5 hPa West 1.6 km/h 6.4 km/h 48 % 0.0 mm
20:17 25.4 °C 13.9 °C 1016.8 hPa Calm   6.4 km/h 49 % 0.0 mm
20:22 25.5 °C 13.7 °C 1016.8 hPa WNW 1.6 km/h 6.4 km/h 48 % 0.0 mm
20:32 25.1 °C 13.9 °C 1016.8 hPa Calm   4.8 km/h 50 % 0.0 mm
20:37 24.7 °C 14.5 °C 1016.8 hPa SW 3.2 km/h 3.2 km/h 53 % 0.0 mm
20:42 24.2 °C 14.0 °C 1016.8 hPa SW 6.4 km/h 6.4 km/h 53 % 0.0 mm
20:47 23.7 °C 14.9 °C 1016.8 hPa West 3.2 km/h 11.3 km/h 58 % 0.0 mm
20:52 23.2 °C 15.5 °C 1016.8 hPa SW 8.0 km/h 11.3 km/h 62 % 0.0 mm
20:57 22.9 °C 15.7 °C 1016.8 hPa SW 3.2 km/h 12.9 km/h 64 % 0.0 mm
21:02 22.7 °C 15.8 °C 1016.8 hPa SW 6.4 km/h 12.9 km/h 65 % 0.0 mm
21:07 22.6 °C 15.9 °C 1016.8 hPa SSW 4.8 km/h 14.5 km/h 66 % 0.0 mm
21:12 22.3 °C 15.9 °C 1017.2 hPa SW 6.4 km/h 14.5 km/h 67 % 0.0 mm
21:17 22.1 °C 15.9 °C 1017.2 hPa SW 8.0 km/h 14.5 km/h 68 % 0.0 mm
21:27 21.6 °C 16.1 °C 1017.2 hPa WSW 12.9 km/h 12.9 km/h 71 % 0.0 mm
21:32 21.4 °C 16.1 °C 1017.2 hPa WSW 6.4 km/h 12.9 km/h 72 % 0.0 mm
21:37 21.1 °C 16.1 °C 1017.2 hPa WSW 4.8 km/h 12.9 km/h 73 % 0.0 mm
21:42 20.8 °C 16.0 °C 1017.2 hPa West 4.8 km/h 12.9 km/h 74 % 0.0 mm
21:47 20.6 °C 16.0 °C 1017.5 hPa SW 4.8 km/h 9.7 km/h 75 % 0.0 mm
21:52 20.4 °C 16.0 °C 1017.5 hPa WSW 4.8 km/h 9.7 km/h 76 % 0.0 mm
22:02 20.1 °C 15.9 °C 1017.8 hPa West 3.2 km/h 9.7 km/h 77 % 0.0 mm
22:12 19.9 °C 15.9 °C 1017.8 hPa West 1.6 km/h 8.0 km/h 78 % 0.0 mm
22:17 19.8 °C 15.9 °C 1017.8 hPa West 4.8 km/h 6.4 km/h 78 % 0.0 mm
22:22 19.7 °C 15.8 °C 1017.8 hPa SW 3.2 km/h 6.4 km/h 78 % 0.0 mm
22:27 19.6 °C 15.7 °C 1017.8 hPa WSW 3.2 km/h 8.0 km/h 78 % 0.0 mm
22:32 19.5 °C 15.8 °C 1017.8 hPa West 1.6 km/h 8.0 km/h 79 % 0.0 mm
22:42 19.2 °C 15.7 °C 1018.2 hPa WSW 3.2 km/h 6.4 km/h 80 % 0.0 mm
22:47 19.2 °C 15.7 °C 1018.2 hPa WSW 1.6 km/h 6.4 km/h 80 % 0.0 mm
22:52 19.1 °C 15.6 °C 1018.2 hPa WSW 1.6 km/h 6.4 km/h 80 % 0.0 mm
23:02 19.1 °C 15.4 °C 1018.2 hPa West 4.8 km/h 9.7 km/h 79 % 0.0 mm
23:07 19.2 °C 15.3 °C 1018.5 hPa WNW 6.4 km/h 9.7 km/h 78 % 0.0 mm
23:12 19.3 °C 15.2 °C 1018.5 hPa West 4.8 km/h 9.7 km/h 77 % 0.0 mm
23:17 19.3 °C 15.0 °C 1018.5 hPa West 4.8 km/h 12.9 km/h 76 % 0.0 mm
23:22 19.2 °C 14.9 °C 1018.5 hPa WNW 8.0 km/h 12.9 km/h 76 % 0.0 mm
23:32 18.9 °C 14.6 °C 1018.5 hPa NW 8.0 km/h 12.9 km/h 76 % 0.0 mm
23:42 18.8 °C 14.5 °C 1018.5 hPa WNW 4.8 km/h 12.9 km/h 76 % 0.0 mm
23:52 18.7 °C 14.6 °C 1018.8 hPa WNW 3.2 km/h 12.9 km/h 77 % 0.0 mm
Meteo18
Compliments of Weather Underground - 4 mb

Script developed by  Jim McMurry - jmcmurry@mwt.net Adapted for the template by  Wim van der Kuil - Leuven-Template.eu

You find our weather info also at:

European Weather Network

Weather Underground

Equipment we use:

Weather-station
Davis Vue

Weather-program
Meteohub

Weather-server
Raspberry PI 2 B+

Provider
1 and 1

Davis Vue

Meteohub

Raspberry PI 2 B+

1 and 1